Time;durP1;ratioP1;P1;durP2;ratioP2;P2;SDS_P1;SDS_P2;PMS_P1;PMS_P2;Temp;Humidity;BMP_temperature;BMP_pressure;BME280_temperature;BME280_humidity;BME280_pressure;Samples;Min_cycle;Max_cycle;Signal;HPM_P1;HPM_P2
2023/12/02 00:01:57;;;;;;;24.67;13.63;;;;;;;2.75;nan;98075.50;4994955;28;21393;-81
2023/12/02 00:04:23;;;;;;;23.10;12.33;;;;;;;2.75;nan;98075.50;4994767;28;20477;-81
2023/12/02 00:06:48;;;;;;;19.33;10.73;;;;;;;2.74;nan;98071.25;4995589;28;20216;-81
2023/12/02 00:09:16;;;;;;;24.47;14.40;;;;;;;2.69;nan;98075.84;4993560;28;20219;-80
2023/12/02 00:11:42;;;;;;;25.73;14.60;;;;;;;2.65;nan;98080.38;4994201;28;20207;-80
2023/12/02 00:14:07;;;;;;;18.40;8.80;;;;;;;2.62;nan;98065.84;4994757;28;20211;-81
2023/12/02 00:16:33;;;;;;;25.60;12.60;;;;;;;2.61;nan;98073.69;4994129;28;20226;-81
2023/12/02 00:18:58;;;;;;;27.30;14.67;;;;;;;2.60;nan;98082.41;4993797;28;20218;-81
2023/12/02 00:21:23;;;;;;;23.33;13.27;;;;;;;2.60;nan;98082.41;4991249;28;20250;-81
2023/12/02 00:23:49;;;;;;;20.63;12.33;;;;;;;2.60;nan;98088.41;4995447;28;20349;-80
2023/12/02 00:26:14;;;;;;;21.23;12.83;;;;;;;2.58;nan;98082.47;4993106;28;20638;-81
2023/12/02 00:28:45;;;;;;;24.40;15.18;;;;;;;2.60;nan;98082.41;4992701;28;20568;-80
2023/12/02 00:31:11;;;;;;;22.13;11.50;;;;;;;2.58;nan;98071.28;4991532;28;20206;-80
2023/12/02 00:33:36;;;;;;;27.57;14.87;;;;;;;2.58;nan;98086.81;4994286;28;20215;-80
2023/12/02 00:36:02;;;;;;;28.63;15.43;;;;;;;2.53;nan;98086.22;4992307;28;20199;-80
2023/12/02 00:38:27;;;;;;;26.60;12.90;;;;;;;2.50;nan;98084.66;4992826;28;20194;-80
2023/12/02 00:40:53;;;;;;;30.47;14.80;;;;;;;2.44;nan;98088.41;4992045;28;20203;-80
2023/12/02 00:43:18;;;;;;;21.17;11.47;;;;;;;2.43;nan;98091.94;4990756;28;20219;-80
2023/12/02 00:45:43;;;;;;;27.63;13.73;;;;;;;2.41;nan;98096.38;4991224;28;20707;-80
2023/12/02 00:48:09;;;;;;;28.67;12.50;;;;;;;2.40;nan;98106.78;4994518;28;20187;-80
2023/12/02 00:50:34;;;;;;;23.53;11.83;;;;;;;2.35;nan;98114.84;4992289;28;20661;-80
2023/12/02 00:52:59;;;;;;;23.03;11.63;;;;;;;2.35;nan;98120.03;4992702;28;20238;-80
2023/12/02 00:55:25;;;;;;;27.07;12.10;;;;;;;2.37;nan;98128.53;4992372;28;20191;-80
2023/12/02 00:57:50;;;;;;;26.70;11.60;;;;;;;2.37;nan;98130.28;4991547;28;20353;-80
2023/12/02 01:00:16;;;;;;;20.00;11.50;;;;;;;2.35;nan;98138.16;4994739;28;20242;-80
2023/12/02 01:02:42;;;;;;;23.70;13.30;;;;;;;2.30;nan;98129.78;4994287;28;20223;-80
2023/12/02 01:05:08;;;;;;;22.67;13.23;;;;;;;2.27;nan;98129.97;4976107;28;20566;-80
2023/12/02 01:07:33;;;;;;;26.17;12.48;;;;;;;2.25;nan;98124.03;4991763;28;20553;-80
2023/12/02 01:09:59;;;;;;;20.23;10.37;;;;;;;2.24;nan;98114.56;4991948;28;20309;-80
2023/12/02 01:12:24;;;;;;;19.00;10.03;;;;;;;2.25;nan;98128.38;4988104;28;20441;-80
2023/12/02 01:14:50;;;;;;;24.80;12.73;;;;;;;2.25;nan;98129.19;4989763;28;20208;-80
2023/12/02 01:17:16;;;;;;;28.43;14.53;;;;;;;2.24;nan;98127.50;4986729;28;20612;-80
2023/12/02 01:19:43;;;;;;;18.75;10.52;;;;;;;2.23;nan;98118.09;4989616;28;20199;-80
2023/12/02 01:22:08;;;;;;;23.45;13.35;;;;;;;2.23;nan;98115.50;4991330;28;20614;-80
2023/12/02 01:24:33;;;;;;;21.60;12.97;;;;;;;2.22;nan;98121.59;4993409;28;20215;-80
2023/12/02 01:26:59;;;;;;;25.63;14.10;;;;;;;2.19;nan;98130.38;4990674;28;21075;-80
2023/12/02 01:29:24;;;;;;;21.40;12.13;;;;;;;2.20;nan;98144.97;4991679;28;20553;-80
2023/12/02 01:31:50;;;;;;;24.17;14.03;;;;;;;2.20;nan;98149.34;4991826;28;20302;-80
2023/12/02 01:34:15;;;;;;;28.13;12.00;;;;;;;2.19;nan;98147.66;4990321;28;20289;-80
2023/12/02 01:36:41;;;;;;;26.47;13.63;;;;;;;2.20;nan;98149.34;4991213;28;20302;-80
2023/12/02 01:39:06;;;;;;;29.17;18.33;;;;;;;2.23;nan;98144.00;4989068;28;20457;-80
2023/12/02 01:41:32;;;;;;;22.67;12.70;;;;;;;2.23;nan;98146.56;4991480;28;20234;-80
2023/12/02 01:43:57;;;;;;;22.23;12.00;;;;;;;2.19;nan;98145.09;4990927;28;20219;-80
2023/12/02 01:46:23;;;;;;;20.95;10.70;;;;;;;2.18;nan;98151.16;4990631;28;20199;-80
2023/12/02 01:48:49;;;;;;;25.23;11.60;;;;;;;2.18;nan;98153.75;4989916;28;20578;-80
2023/12/02 01:51:16;;;;;;;17.33;11.07;;;;;;;2.17;nan;98152.09;4989596;28;20201;-81
2023/12/02 01:53:41;;;;;;;22.77;11.32;;;;;;;2.15;nan;98165.09;4989200;28;20462;-80
2023/12/02 01:56:08;;;;;;;17.60;8.43;;;;;;;2.14;nan;98162.63;4990136;28;20195;-80
2023/12/02 01:58:33;;;;;;;22.10;13.20;;;;;;;2.12;nan;98164.44;4991641;28;20203;-80
2023/12/02 02:00:59;;;;;;;24.80;9.93;;;;;;;2.10;nan;98177.47;4992133;28;20200;-80
2023/12/02 02:03:24;;;;;;;25.57;11.13;;;;;;;2.12;nan;98173.03;4994755;28;20203;-80
2023/12/02 02:05:49;;;;;;;23.33;10.90;;;;;;;2.11;nan;98178.31;4993231;28;20262;-81
2023/12/02 02:08:15;;;;;;;27.33;14.60;;;;;;;2.10;nan;98181.81;4997389;28;20458;-80
2023/12/02 02:10:40;;;;;;;21.40;14.03;;;;;;;2.10;nan;98179.22;4998888;28;20195;-80
2023/12/02 02:13:06;;;;;;;20.27;11.13;;;;;;;2.08;nan;98178.47;4997803;28;20199;-80
2023/12/02 02:15:31;;;;;;;17.70;10.40;;;;;;;2.00;nan;98176.28;4994617;28;20203;-81
2023/12/02 02:17:57;;;;;;;15.17;10.63;;;;;;;1.98;nan;98186.72;4995300;28;20187;-81
2023/12/02 02:20:22;;;;;;;21.47;13.50;;;;;;;1.98;nan;98189.31;4993632;28;20462;-80
2023/12/02 02:22:48;;;;;;;13.47;10.00;;;;;;;1.96;nan;98190.28;4992705;28;20677;-81
2023/12/02 02:25:13;;;;;;;21.17;11.37;;;;;;;1.91;nan;98193.13;4991342;28;20198;-81
2023/12/02 02:27:38;;;;;;;17.47;9.87;;;;;;;1.90;nan;98188.84;4991745;28;20195;-81
2023/12/02 02:30:05;;;;;;;20.90;9.87;;;;;;;1.88;nan;98195.03;4992961;28;20199;-81
2023/12/02 02:32:30;;;;;;;17.38;9.15;;;;;;;1.84;nan;98196.94;4992900;28;20202;-81
2023/12/02 02:34:56;;;;;;;15.87;9.37;;;;;;;1.83;nan;98200.44;4990490;28;20215;-81
2023/12/02 02:37:21;;;;;;;20.87;11.90;;;;;;;1.81;nan;98204.88;4992910;28;20282;-81
2023/12/02 02:39:46;;;;;;;20.67;11.07;;;;;;;1.75;nan;98198.22;4990804;28;20214;-81
2023/12/02 02:42:12;;;;;;;32.17;12.60;;;;;;;1.72;nan;98195.78;4992910;28;20215;-81
2023/12/02 02:44:38;;;;;;;18.20;10.40;;;;;;;1.72;nan;98187.19;4991385;28;20279;-81
2023/12/02 02:47:04;;;;;;;23.65;10.75;;;;;;;1.69;nan;98192.53;4995992;28;20282;-81
2023/12/02 02:49:29;;;;;;;17.25;11.10;;;;;;;1.69;nan;98187.34;4992541;28;20199;-81
2023/12/02 02:51:55;;;;;;;17.50;10.57;;;;;;;1.68;nan;98190.88;4992690;28;20199;-81
2023/12/02 02:54:20;;;;;;;21.37;12.77;;;;;;;1.64;nan;98189.34;4991208;28;20234;-81
2023/12/02 02:56:46;;;;;;;15.60;10.50;;;;;;;1.61;nan;98205.03;4993319;28;20195;-81
2023/12/02 02:59:12;;;;;;;17.93;9.90;;;;;;;1.52;nan;98196.81;4993111;28;20822;-81
2023/12/02 03:01:39;;;;;;;16.23;10.70;;;;;;;1.55;nan;98207.00;4996321;28;20521;-81
2023/12/02 03:04:05;;;;;;;16.85;9.23;;;;;;;1.53;nan;98215.75;4991502;28;20219;-81
2023/12/02 03:06:30;;;;;;;11.00;5.93;;;;;;;1.52;nan;98214.91;4991838;28;20233;-80
2023/12/02 03:08:56;;;;;;;11.53;9.30;;;;;;;1.46;nan;98219.53;4991047;28;20206;-79
2023/12/02 03:11:21;;;;;;;16.73;10.20;;;;;;;1.46;nan;98230.75;5006827;28;20821;-79
2023/12/02 03:13:47;;;;;;;12.68;7.72;;;;;;;1.47;nan;98234.16;4992779;28;20199;-81
2023/12/02 03:16:13;;;;;;;11.43;7.80;;;;;;;1.47;nan;98229.00;4997867;28;20202;-81
2023/12/02 03:18:38;;;;;;;17.70;8.10;;;;;;;1.45;nan;98233.41;4994602;28;20199;-81
2023/12/02 03:21:04;;;;;;;15.50;9.63;;;;;;;1.47;nan;98234.16;4996206;28;20556;-81
2023/12/02 03:23:29;;;;;;;15.87;8.90;;;;;;;1.49;nan;98237.53;4997183;28;20214;-80
2023/12/02 03:25:55;;;;;;;15.97;9.60;;;;;;;1.50;nan;98239.19;4993266;28;20206;-81
2023/12/02 03:28:22;;;;;;;15.00;10.07;;;;;;;1.51;nan;98246.03;4995126;28;20199;-81
2023/12/02 03:30:47;;;;;;;18.63;10.60;;;;;;;1.50;nan;98240.03;4990042;28;20207;-81
2023/12/02 03:33:13;;;;;;;15.60;7.25;;;;;;;1.50;nan;98239.19;4992898;28;20272;-81
2023/12/02 03:35:39;;;;;;;15.37;8.73;;;;;;;1.51;nan;98241.72;4990660;28;20561;-81
2023/12/02 03:38:04;;;;;;;17.60;11.33;;;;;;;1.51;nan;98241.72;4990490;28;20446;-81
2023/12/02 03:40:29;;;;;;;15.40;9.37;;;;;;;1.52;nan;98245.97;4993055;28;20230;-81
2023/12/02 03:42:55;;;;;;;15.10;7.70;;;;;;;1.52;nan;98255.50;4994062;28;20223;-81
2023/12/02 03:45:21;;;;;;;17.50;11.20;;;;;;;1.50;nan;98255.56;4991697;28;20203;-81
2023/12/02 03:47:47;;;;;;;15.47;8.00;;;;;;;1.48;nan;98251.34;4994018;28;20714;-81
2023/12/02 03:50:12;;;;;;;13.65;7.90;;;;;;;1.46;nan;98255.75;4992429;28;20462;-81
2023/12/02 03:52:38;;;;;;;16.73;10.00;;;;;;;1.41;nan;98250.84;4992017;28;20199;-82
2023/12/02 03:55:03;;;;;;;12.57;7.17;;;;;;;1.40;nan;98256.06;4994444;28;20667;-82
2023/12/02 03:57:29;;;;;;;13.67;9.50;;;;;;;1.33;nan;98253.78;4996953;28;20233;-82
2023/12/02 03:59:54;;;;;;;14.00;7.60;;;;;;;1.35;nan;98265.78;4996416;28;20203;-80
2023/12/02 04:02:20;;;;;;;8.77;6.20;;;;;;;1.27;nan;98267.00;4996615;28;20453;-80
2023/12/02 04:04:46;;;;;;;13.70;7.97;;;;;;;1.28;nan;98280.78;4996735;28;20202;-80
2023/12/02 04:07:11;;;;;;;21.40;11.57;;;;;;;1.22;nan;98279.31;4994689;28;20207;-82
2023/12/02 04:09:36;;;;;;;14.80;8.47;;;;;;;1.21;nan;98282.81;4994567;28;20293;-80
2023/12/02 04:12:03;;;;;;;17.27;8.53;;;;;;;1.21;nan;98284.56;4996654;28;20199;-79
2023/12/02 04:14:28;;;;;;;9.38;6.05;;;;;;;1.14;nan;98290.94;4997609;28;20203;-80
2023/12/02 04:16:53;;;;;;;15.47;9.33;;;;;;;1.13;nan;98289.25;4994822;28;20234;-80
2023/12/02 04:19:19;;;;;;;18.43;9.07;;;;;;;1.15;nan;98295.19;4995245;28;20218;-80
2023/12/02 04:21:44;;;;;;;16.47;8.63;;;;;;;1.13;nan;98300.44;4996406;28;20278;-80
2023/12/02 04:24:10;;;;;;;11.20;8.23;;;;;;;1.09;nan;98298.91;4994041;28;20215;-80
2023/12/02 04:26:37;;;;;;;12.60;7.60;;;;;;;1.06;nan;98304.22;4999430;28;20203;-80
2023/12/02 04:29:02;;;;;;;11.88;7.80;;;;;;;1.04;nan;98306.03;4997253;28;20203;-80
2023/12/02 04:31:29;;;;;;;9.47;6.83;;;;;;;1.01;nan;98304.44;4998137;28;20601;-81
2023/12/02 04:33:55;;;;;;;12.70;7.55;;;;;;;0.98;nan;98309.75;4995619;28;21178;-80
2023/12/02 04:36:20;;;;;;;18.30;12.00;;;;;;;1.00;nan;98307.06;4994645;28;20448;-80
2023/12/02 04:38:45;;;;;;;25.70;14.57;;;;;;;1.00;nan;98307.06;4992610;28;20442;-81
2023/12/02 04:41:11;;;;;;;17.80;10.37;;;;;;;1.01;nan;98309.59;4997077;28;20915;-81
2023/12/02 04:43:36;;;;;;;15.03;8.90;;;;;;;0.99;nan;98320.91;4998672;28;20203;-81
2023/12/02 04:46:02;;;;;;;13.00;7.17;;;;;;;0.97;nan;98325.31;4998405;28;20191;-80
2023/12/02 04:48:27;;;;;;;14.77;8.97;;;;;;;0.92;nan;98340.19;4999633;28;20505;-81
2023/12/02 04:50:52;;;;;;;20.07;7.87;;;;;;;0.90;nan;98332.53;4996675;28;20230;-80
2023/12/02 04:53:18;;;;;;;16.00;9.23;;;;;;;0.90;nan;98334.28;4997507;28;20210;-81
2023/12/02 04:55:44;;;;;;;16.53;8.43;;;;;;;0.87;nan;98340.41;4986486;28;20660;-80
2023/12/02 04:58:09;;;;;;;11.83;8.47;;;;;;;0.86;nan;98341.31;4990683;28;20485;-81
2023/12/02 05:00:34;;;;;;;10.00;4.93;;;;;;;0.79;nan;98353.66;4986228;28;20221;-80
2023/12/02 05:03:00;;;;;;;10.23;5.90;;;;;;;0.81;nan;98351.88;4989620;28;20349;-80
2023/12/02 05:05:26;;;;;;;12.50;8.67;;;;;;;0.81;nan;98359.63;4989306;28;20218;-80
2023/12/02 05:07:51;;;;;;;11.20;7.07;;;;;;;0.80;nan;98363.09;4990221;28;20955;-81
2023/12/02 05:10:17;;;;;;;11.97;7.27;;;;;;;0.77;nan;98364.97;4990083;28;20634;-80
2023/12/02 05:12:42;;;;;;;15.30;7.20;;;;;;;0.76;nan;98371.06;4993579;28;20211;-80
2023/12/02 05:15:09;;;;;;;14.73;8.10;;;;;;;0.77;nan;98377.91;4988896;28;20207;-80
2023/12/02 05:17:35;;;;;;;15.95;7.70;;;;;;;0.77;nan;98377.91;4988534;28;20195;-81
2023/12/02 05:20:00;;;;;;;17.77;10.10;;;;;;;0.73;nan;98368.59;4991297;28;20233;-82
2023/12/02 05:22:26;;;;;;;17.60;7.50;;;;;;;0.72;nan;98379.84;4995896;28;20893;-82
2023/12/02 05:24:51;;;;;;;10.93;6.80;;;;;;;0.75;nan;98390.88;4993785;28;20211;-81
2023/12/02 05:27:17;;;;;;;17.30;8.70;;;;;;;0.74;nan;98394.38;4993013;28;20207;-82
2023/12/02 05:29:42;;;;;;;13.33;7.37;;;;;;;0.75;nan;98401.22;4993380;28;20330;-82
2023/12/02 05:32:07;;;;;;;13.23;7.70;;;;;;;0.74;nan;98404.72;4994572;28;20203;-82
2023/12/02 05:34:33;;;;;;;10.33;7.50;;;;;;;0.73;nan;98407.34;4990612;28;20203;-82
2023/12/02 05:36:59;;;;;;;14.03;7.30;;;;;;;0.73;nan;98400.47;4991802;28;20265;-82
2023/12/02 05:39:24;;;;;;;10.70;5.20;;;;;;;0.72;nan;98421.19;4990974;28;20199;-82
2023/12/02 05:41:49;;;;;;;12.40;7.10;;;;;;;0.63;nan;98422.44;5007862;28;20462;-82
2023/12/02 05:44:15;;;;;;;12.80;8.70;;;;;;;0.59;nan;98423.44;4991041;28;20317;-82
2023/12/02 05:46:40;;;;;;;9.93;7.07;;;;;;;0.58;nan;98440.72;4989844;28;20910;-82
2023/12/02 05:49:06;;;;;;;19.50;8.63;;;;;;;0.56;nan;98439.09;4990531;28;20207;-82
2023/12/02 05:51:31;;;;;;;11.57;7.10;;;;;;;0.55;nan;98443.44;4989529;28;20218;-82
2023/12/02 05:53:56;;;;;;;15.83;7.03;;;;;;;0.54;nan;98448.66;4990612;28;20986;-82
2023/12/02 05:56:22;;;;;;;14.43;7.60;;;;;;;0.52;nan;98453.91;4990398;28;20239;-81
2023/12/02 05:58:51;;;;;;;17.27;8.40;;;;;;;0.53;nan;98452.16;4989166;28;20310;-82
2023/12/02 06:01:23;;;;;;;12.95;9.30;;;;;;;0.50;nan;98462.59;4988860;28;20223;-82
2023/12/02 06:03:49;;;;;;;14.43;7.53;;;;;;;0.50;nan;98462.59;4985255;28;20210;-82
2023/12/02 06:06:15;;;;;;;19.33;8.93;;;;;;;0.47;nan;98468.75;4988331;28;20269;-82
2023/12/02 06:08:41;;;;;;;19.02;12.20;;;;;;;0.51;nan;98469.44;4981121;28;20430;-82
2023/12/02 06:11:07;;;;;;;11.07;7.77;;;;;;;0.49;nan;98484.16;4982612;28;20217;-81
2023/12/02 06:13:33;;;;;;;13.43;8.75;;;;;;;0.48;nan;98473.00;4983579;28;20195;-80
2023/12/02 06:15:58;;;;;;;11.63;8.87;;;;;;;0.48;nan;98491.06;4981393;28;20275;-83
2023/12/02 06:18:23;;;;;;;16.60;9.90;;;;;;;0.49;nan;98486.75;4983292;28;20256;-79
2023/12/02 06:20:49;;;;;;;19.90;10.77;;;;;;;0.53;nan;98496.91;4981061;28;20244;-83
2023/12/02 06:23:14;;;;;;;12.77;8.00;;;;;;;0.52;nan;98491.81;4981570;28;20907;-81
2023/12/02 06:25:40;;;;;;;12.17;7.37;;;;;;;0.47;nan;98499.75;4985838;28;20290;-82
2023/12/02 06:28:06;;;;;;;13.07;6.80;;;;;;;0.47;nan;98502.31;4984748;28;20211;-80
2023/12/02 06:30:31;;;;;;;11.18;7.20;;;;;;;0.48;nan;98506.56;4980673;28;20215;-83
2023/12/02 06:32:57;;;;;;;13.70;8.90;;;;;;;0.47;nan;98511.81;4987473;28;20211;-82
2023/12/02 06:35:22;;;;;;;15.07;7.90;;;;;;;0.42;nan;98512.00;4983460;28;20210;-80
2023/12/02 06:37:48;;;;;;;14.53;9.63;;;;;;;0.48;nan;98521.25;4985487;28;20190;-83
2023/12/02 06:40:13;;;;;;;17.73;9.97;;;;;;;0.48;nan;98521.25;4986963;28;20599;-82
2023/12/02 06:42:39;;;;;;;17.87;10.53;;;;;;;0.52;nan;98525.41;4986727;28;20209;-79
2023/12/02 06:45:05;;;;;;;16.50;9.50;;;;;;;0.55;nan;98527.84;4987471;28;20793;-81
2023/12/02 06:47:31;;;;;;;13.83;8.10;;;;;;;0.56;nan;98538.09;4984437;28;20203;-82
2023/12/02 06:49:56;;;;;;;7.43;5.57;;;;;;;0.55;nan;98545.94;4983105;28;21202;-81
2023/12/02 06:52:22;;;;;;;9.10;7.57;;;;;;;0.55;nan;98544.19;4986207;28;20203;-82
2023/12/02 06:54:47;;;;;;;15.00;8.00;;;;;;;0.53;nan;98547.75;4985600;28;20211;-82
2023/12/02 06:57:12;;;;;;;9.20;6.47;;;;;;;0.54;nan;98550.28;4985821;28;20211;-83
2023/12/02 06:59:38;;;;;;;16.53;9.00;;;;;;;0.50;nan;98555.63;4983196;28;20273;-82
2023/12/02 07:02:03;;;;;;;17.40;8.33;;;;;;;0.44;nan;98567.88;4985825;28;20219;-82
2023/12/02 07:04:28;;;;;;;9.77;5.63;;;;;;;0.45;nan;98573.88;4981868;28;20302;-82
2023/12/02 07:06:54;;;;;;;19.47;9.10;;;;;;;0.42;nan;98576.56;4982850;28;20222;-82
2023/12/02 07:09:19;;;;;;;15.13;9.17;;;;;;;0.40;nan;98575.78;4982455;28;20528;-80
2023/12/02 07:11:45;;;;;;;14.03;7.23;;;;;;;0.43;nan;98588.59;4983616;28;20715;-82
2023/12/02 07:14:10;;;;;;;13.40;7.03;;;;;;;0.44;nan;98591.13;4984195;28;20285;-83
2023/12/02 07:16:36;;;;;;;13.03;6.20;;;;;;;0.46;nan;98596.25;4985707;28;20936;-82
2023/12/02 07:19:01;;;;;;;11.10;6.17;;;;;;;0.45;nan;98602.28;4984210;28;20199;-82
2023/12/02 07:21:27;;;;;;;8.70;6.33;;;;;;;0.43;nan;98597.19;4983212;28;20217;-81
2023/12/02 07:23:52;;;;;;;15.73;8.57;;;;;;;0.33;nan;98597.63;4987938;28;20207;-80
2023/12/02 07:26:18;;;;;;;12.20;6.27;;;;;;;0.37;nan;98601.75;4986088;28;20195;-81
2023/12/02 07:28:43;;;;;;;11.77;5.70;;;;;;;0.40;nan;98606.78;4989665;28;20925;-79
2023/12/02 07:31:13;;;;;;;11.23;7.77;;;;;;;0.42;nan;98605.00;4989896;28;20294;-81
2023/12/02 07:33:38;;;;;;;10.23;7.50;;;;;;;0.43;nan;98604.09;4992511;28;20275;-79
2023/12/02 07:36:04;;;;;;;14.37;9.07;;;;;;;0.41;nan;98617.06;4989495;28;20203;-79
2023/12/02 07:38:30;;;;;;;20.55;11.32;;;;;;;0.46;nan;98618.63;4990320;28;20446;-79
2023/12/02 07:40:55;;;;;;;15.37;8.53;;;;;;;0.42;nan;98623.06;4987553;28;20214;-80
2023/12/02 07:43:20;;;;;;;17.57;7.70;;;;;;;0.41;nan;98622.25;4991469;28;20365;-81
2023/12/02 07:45:46;;;;;;;9.43;6.70;;;;;;;0.38;nan;98627.53;4991994;28;20207;-79
2023/12/02 07:48:12;;;;;;;13.27;7.20;;;;;;;0.35;nan;98626.78;4989268;28;21183;-81
2023/12/02 07:50:38;;;;;;;9.70;8.17;;;;;;;0.31;nan;98628.66;4990567;28;20459;-80
2023/12/02 07:53:03;;;;;;;9.90;7.72;;;;;;;0.31;nan;98630.41;4990661;28;20640;-80
2023/12/02 07:55:29;;;;;;;14.27;7.90;;;;;;;0.34;nan;98638.03;4989281;28;20199;-81
2023/12/02 07:57:54;;;;;;;10.97;7.60;;;;;;;0.37;nan;98641.31;4990337;28;20199;-78
2023/12/02 08:00:20;;;;;;;12.53;8.77;;;;;;;0.44;nan;98650.53;4990746;28;20195;-78
2023/12/02 08:02:45;;;;;;;8.53;5.40;;;;;;;0.43;nan;98658.34;4987375;28;20645;-78
2023/12/02 08:05:11;;;;;;;9.07;6.03;;;;;;;0.37;nan;98659.41;4989887;28;20548;-77
2023/12/02 08:07:36;;;;;;;13.03;7.83;;;;;;;0.31;nan;98659.66;4990637;28;20500;-78
2023/12/02 08:10:02;;;;;;;15.50;9.07;;;;;;;0.27;nan;98667.56;4989616;28;20201;-78
2023/12/02 08:12:28;;;;;;;13.40;7.40;;;;;;;0.24;nan;98670.25;4990689;28;20191;-81
2023/12/02 08:14:53;;;;;;;8.53;5.50;;;;;;;0.20;nan;98677.28;4992479;28;20468;-82
2023/12/02 08:17:18;;;;;;;7.50;4.50;;;;;;;0.18;nan;98682.50;4993002;28;20273;-82
2023/12/02 08:19:44;;;;;;;11.27;8.10;;;;;;;0.16;nan;98692.06;4994703;28;20195;-76
2023/12/02 08:22:09;;;;;;;10.00;8.20;;;;;;;0.16;nan;98694.63;4992438;28;20757;-76
2023/12/02 08:24:42;;;;;;;12.33;7.37;;;;;;;0.11;nan;98699.13;4993020;28;20275;-77
2023/12/02 08:27:11;;;;;;;12.90;8.20;;;;;;;0.11;nan;98700.84;4996532;28;20571;-76
2023/12/02 08:29:36;;;;;;;9.75;7.57;;;;;;;0.13;nan;98705.06;4992129;28;20692;-81
2023/12/02 08:32:03;;;;;;;10.13;6.00;;;;;;;0.13;nan;98717.97;4994393;28;20336;-82
2023/12/02 08:34:29;;;;;;;11.85;6.00;;;;;;;0.10;nan;98718.06;4998846;28;20207;-79
2023/12/02 08:36:55;;;;;;;9.30;6.67;;;;;;;0.10;nan;98727.56;4992277;28;20521;-80
2023/12/02 08:39:21;;;;;;;13.68;8.02;;;;;;;0.10;nan;98740.47;4992596;28;20568;-81
2023/12/02 08:41:47;;;;;;;10.00;6.83;;;;;;;0.07;nan;98727.69;4990626;28;20209;-83
2023/12/02 08:44:12;;;;;;;19.57;7.43;;;;;;;0.07;nan;98738.00;4990789;28;20592;-82
2023/12/02 08:46:37;;;;;;;14.03;6.73;;;;;;;0.03;nan;98732.13;4991850;28;20230;-82
2023/12/02 08:49:03;;;;;;;12.57;7.77;;;;;;;0.04;nan;98732.94;4990340;28;20195;-83
2023/12/02 08:51:28;;;;;;;9.83;7.43;;;;;;;-0.04;nan;98738.38;4987647;28;20300;-79
2023/12/02 08:53:59;;;;;;;7.63;6.73;;;;;;;0.01;nan;98739.06;4986379;28;20276;-78
2023/12/02 08:56:24;;;;;;;10.82;6.63;;;;;;;0.03;nan;98742.44;4989911;28;20287;-82
2023/12/02 08:58:51;;;;;;;9.30;7.33;;;;;;;0.07;nan;98756.09;4993922;28;20215;-82
2023/12/02 09:01:16;;;;;;;9.45;6.30;;;;;;;0.08;nan;98763.78;4997844;28;20755;-79
2023/12/02 09:03:42;;;;;;;12.93;8.93;;;;;;;0.13;nan;98774.78;4996223;28;20211;-79
2023/12/02 09:06:11;;;;;;;10.85;7.97;;;;;;;0.14;nan;98778.22;4994611;28;20218;-80
2023/12/02 09:08:37;;;;;;;14.88;9.75;;;;;;;0.19;nan;98777.16;4995561;28;20500;-79
2023/12/02 09:11:04;;;;;;;10.80;6.45;;;;;;;0.20;nan;98784.00;4992270;28;20214;-79
2023/12/02 09:13:32;;;;;;;8.90;6.93;;;;;;;0.21;nan;98793.44;4994683;28;20291;-79
2023/12/02 09:16:00;;;;;;;11.55;6.40;;;;;;;0.20;nan;98796.91;4993839;28;20203;-79
2023/12/02 09:18:32;;;;;;;10.45;6.93;;;;;;;0.19;nan;98804.72;4992873;28;20203;-78
2023/12/02 09:20:58;;;;;;;7.93;5.80;;;;;;;0.19;nan;98799.56;4992790;28;20215;-78
2023/12/02 09:23:24;;;;;;;11.60;6.80;;;;;;;0.21;nan;98800.34;4992810;28;20223;-77
2023/12/02 09:25:51;;;;;;;16.13;6.90;;;;;;;0.21;nan;98803.75;4995987;28;20465;-77
2023/12/02 09:28:19;;;;;;;7.60;4.75;;;;;;;0.18;nan;98815.94;4993654;28;20199;-79
2023/12/02 09:31:06;;;;;;;5.32;4.53;;;;;;;0.15;nan;98819.47;4992977;28;20229;-79
2023/12/02 09:33:32;;;;;;;9.18;6.32;;;;;;;0.13;nan;98831.59;4990044;28;20210;-79
2023/12/02 09:35:59;;;;;;;10.00;6.38;;;;;;;0.12;nan;98835.06;4989436;28;20191;-72
2023/12/02 09:38:25;;;;;;;11.75;7.10;;;;;;;0.14;nan;98833.28;4989868;28;20688;-79
2023/12/02 09:41:09;;;;;;;8.07;6.30;;;;;;;0.17;nan;98838.34;4994624;28;20198;-76
2023/12/02 09:43:37;;;;;;;9.73;4.97;;;;;;;0.19;nan;98836.56;4999234;28;20254;-78
2023/12/02 09:46:31;;;;;;;4.35;3.35;;;;;;;0.18;nan;98844.34;4998166;28;20426;-77
2023/12/02 09:49:26;;;;;;;9.07;4.95;;;;;;;0.14;nan;98866.03;4991421;28;20250;-78
2023/12/02 09:52:11;;;;;;;10.88;6.25;;;;;;;0.10;nan;98852.34;4990799;28;20207;-78
2023/12/02 09:54:41;;;;;;;10.98;5.25;;;;;;;0.09;nan;98863.59;4989582;28;20211;-78
2023/12/02 09:57:28;;;;;;;14.88;7.63;;;;;;;0.08;nan;98861.91;4986090;28;20192;-78
2023/12/02 10:00:05;;;;;;;9.35;6.10;;;;;;;0.10;nan;98865.25;4992257;28;20314;-78
2023/12/02 10:02:58;;;;;;;10.93;6.78;;;;;;;0.15;nan;98871.13;4988759;28;20183;-78
2023/12/02 10:05:24;;;;;;;11.02;6.53;;;;;;;0.15;nan;98871.13;4988426;28;20691;-78
2023/12/02 10:08:05;;;;;;;11.03;6.17;;;;;;;0.16;nan;98879.69;4988046;28;20219;-78
2023/12/02 10:10:57;;;;;;;11.52;6.93;;;;;;;0.20;nan;98878.72;4989327;28;20461;-78
2023/12/02 10:13:42;;;;;;;10.70;6.35;;;;;;;0.22;nan;98875.19;4983095;28;20215;-78
2023/12/02 10:16:14;;;;;;;7.10;6.38;;;;;;;0.26;nan;98888.84;4988255;28;20242;-78
2023/12/02 10:18:49;;;;;;;16.73;7.70;;;;;;;0.26;nan;98888.84;4985555;28;20191;-78
2023/12/02 10:21:18;;;;;;;9.43;4.88;;;;;;;0.24;nan;98888.03;4986266;28;20252;-78
2023/12/02 10:23:53;;;;;;;12.13;7.75;;;;;;;0.28;nan;98896.56;4986616;28;20248;-78
2023/12/02 10:26:31;;;;;;;9.98;7.10;;;;;;;0.31;nan;98897.28;4984531;28;20210;-78
2023/12/02 10:29:28;;;;;;;11.10;5.70;;;;;;;0.32;nan;98904.13;4988287;28;20226;-78
2023/12/02 10:32:15;;;;;;;7.40;5.45;;;;;;;0.32;nan;98908.44;4987891;28;20199;-79
2023/12/02 10:35:00;;;;;;;12.55;6.40;;;;;;;0.26;nan;98917.25;4985571;28;20203;-79
2023/12/02 10:37:36;;;;;;;14.05;9.23;;;;;;;0.26;nan;98930.16;4986790;28;20450;-79
2023/12/02 10:40:07;;;;;;;7.15;5.68;;;;;;;0.20;nan;98928.63;4988489;28;20202;-79
2023/12/02 10:42:45;;;;;;;7.63;6.07;;;;;;;0.14;nan;98931.41;4989187;28;20203;-78
2023/12/02 10:45:13;;;;;;;12.00;6.88;;;;;;;0.12;nan;98930.63;4986351;28;21490;-78
2023/12/02 10:47:40;;;;;;;10.43;5.72;;;;;;;0.09;nan;98928.13;4984672;28;20203;-78
2023/12/02 10:50:07;;;;;;;7.13;6.43;;;;;;;-0.03;nan;98934.53;4989842;28;20313;-77
2023/12/02 10:52:34;;;;;;;8.50;5.38;;;;;;;0.02;nan;98942.13;4992896;28;20208;-79
2023/12/02 10:55:02;;;;;;;10.60;5.32;;;;;;;0.08;nan;98946.25;4993425;28;20325;-77
2023/12/02 10:57:28;;;;;;;8.10;4.88;;;;;;;0.05;nan;98941.19;4992626;28;20203;-77
2023/12/02 11:00:06;;;;;;;10.23;5.30;;;;;;;0.08;nan;98947.13;4994874;28;20288;-79
2023/12/02 11:02:50;;;;;;;10.23;4.72;;;;;;;0.04;nan;98963.56;4997940;28;20289;-77
2023/12/02 11:05:26;;;;;;;10.85;7.35;;;;;;;0.12;nan;98966.75;4999034;28;20302;-77
2023/12/02 11:07:54;;;;;;;8.75;6.43;;;;;;;0.17;nan;98961.47;4999312;28;20219;-79
2023/12/02 11:10:35;;;;;;;17.73;7.15;;;;;;;0.23;nan;98971.59;5000240;28;20202;-82
2023/12/02 11:13:04;;;;;;;15.52;6.97;;;;;;;0.27;nan;98974.91;5007178;28;20282;-78
2023/12/02 11:15:35;;;;;;;10.15;5.97;;;;;;;0.26;nan;98976.66;5002356;28;20257;-78
2023/12/02 11:18:04;;;;;;;12.30;6.25;;;;;;;0.30;nan;98982.56;5000037;28;20796;-79
2023/12/02 11:20:32;;;;;;;8.73;5.45;;;;;;;0.27;nan;98975.78;5000450;28;20320;-79
2023/12/02 11:23:46;;;;;;;9.07;5.22;;;;;;;0.30;nan;98975.69;4993752;28;20318;-79
2023/12/02 11:26:39;;;;;;;10.02;6.13;;;;;;;0.34;nan;98981.59;4994372;28;20214;-80
2023/12/02 11:29:15;;;;;;;8.60;5.35;;;;;;;0.37;nan;98984.06;4992199;28;20315;-79
2023/12/02 11:32:10;;;;;;;9.38;5.97;;;;;;;0.39;nan;98993.44;4992710;28;20198;-79
2023/12/02 11:34:42;;;;;;;7.00;5.72;;;;;;;0.43;nan;98989.91;4994008;28;20261;-79
2023/12/02 11:37:26;;;;;;;12.68;8.15;;;;;;;0.46;nan;98990.66;4996849;28;20203;-81
2023/12/02 11:40:17;;;;;;;8.68;5.18;;;;;;;0.45;nan;99002.75;4998838;28;20704;-82
2023/12/02 11:43:35;;;;;;;8.57;5.70;;;;;;;0.49;nan;99000.91;4998824;28;20203;-83
2023/12/02 11:46:05;;;;;;;8.07;5.97;;;;;;;0.42;nan;99008.84;4974730;28;20204;-80
2023/12/02 11:48:44;;;;;;;8.88;5.80;;;;;;;0.47;nan;99013.03;4975175;28;20207;-83
2023/12/02 11:51:20;;;;;;;5.38;4.75;;;;;;;0.52;nan;99014.59;4989488;28;20211;-81
2023/12/02 11:54:12;;;;;;;7.93;6.07;;;;;;;0.59;nan;99018.63;4999439;28;20579;-82